Time;durP1;ratioP1;P1;durP2;ratioP2;P2;SDS_P1;SDS_P2;PMS_P1;PMS_P2;Temp;Humidity;BMP_temperature;BMP_pressure;BME280_temperature;BME280_humidity;BME280_pressure;Samples;Min_cycle;Max_cycle;Signal;HPM_P1;HPM_P2
2021/01/13 00:00:15;;;;;;;;;;;;;;;;;;2071606;28;7009;-65
2021/01/13 00:01:17;;;;;;;;;;;;;;;;;;2078531;28;7155;-68
2021/01/13 00:02:19;;;;;;;;;;;;;;;;;;2078354;28;7138;-66
2021/01/13 00:03:21;;;;;;;;;;;;;;;;;;2070729;28;7301;-68
2021/01/13 00:04:23;;;;;;;;;;;;;;;;;;2071164;28;7009;-65
2021/01/13 00:05:25;;;;;;;;;;;;;;;;;;2071521;28;7380;-68
2021/01/13 00:06:27;;;;;;;;;;;;;;;;;;2070440;28;7002;-69
2021/01/13 00:07:29;;;;;;;;;;;;;;;;;;2079416;28;7124;-65
2021/01/13 00:08:31;;;;;;;;;;;;;;;;;;2079312;28;7089;-67
2021/01/13 00:09:33;;;;;;;;;;;;;;;;;;2079391;28;8074;-66
2021/01/13 00:10:34;;;;;;;;;;;;;;;;;;2079180;28;7009;-65
2021/01/13 00:11:36;;;;;;;;;;;;;;;;;;2078869;28;7376;-66
2021/01/13 00:12:38;;;;;;;;;;;;;;;;;;2078910;28;8035;-64
2021/01/13 00:13:41;;;;;;;;;;;;;;;;;;2079370;28;7049;-68
2021/01/13 00:14:44;;;;;;;;;;;;;;;;;;2078911;28;7059;-67
2021/01/13 00:15:46;;;;;;;;;;;;;;;;;;2079110;28;7092;-66
2021/01/13 00:16:48;;;;;;;;;;;;;;;;;;2078882;28;7092;-67
2021/01/13 00:17:50;;;;;;;;;;;;;;;;;;2079060;28;7100;-66
2021/01/13 00:18:52;;;;;;;;;;;;;;;;;;2078816;28;7017;-70
2021/01/13 00:19:54;;;;;;;;;;;;;;;;;;2079157;28;7009;-68
2021/01/13 00:20:56;;;;;;;;;;;;;;;;;;2079306;28;7108;-65
2021/01/13 00:21:58;;;;;;;;;;;;;;;;;;2070791;28;8131;-68
2021/01/13 00:23:00;;;;;;;;;;;;;;;;;;2072024;28;8034;-65
2021/01/13 00:24:02;;;;;;;;;;;;;;;;;;2070333;28;7113;-66
2021/01/13 00:25:04;;;;;;;;;;;;;;;;;;2069745;28;7989;-67
2021/01/13 00:26:06;;;;;;;;;;;;;;;;;;2069579;28;7093;-64
2021/01/13 00:27:08;;;;;;;;;;;;;;;;;;2071303;28;7001;-68
2021/01/13 00:28:10;;;;;;;;;;;;;;;;;;2073040;28;8044;-64
2021/01/13 00:29:16;;;;;;;;;;;;;;;;;;2078677;28;8224;-69
2021/01/13 00:30:18;;;;;;;;;;;;;;;;;;2078928;28;7049;-64
2021/01/13 00:31:20;;;;;;;;;;;;;;;;;;2079143;28;8087;-67
2021/01/13 00:32:23;;;;;;;;;;;;;;;;;;2078942;28;7013;-67
2021/01/13 00:33:25;;;;;;;;;;;;;;;;;;2078927;28;7014;-67
2021/01/13 00:34:27;;;;;;;;;;;;;;;;;;2078755;28;7335;-67
2021/01/13 00:35:29;;;;;;;;;;;;;;;;;;2073655;28;7060;-65
2021/01/13 00:36:31;;;;;;;;;;;;;;;;;;2074217;28;7096;-67
2021/01/13 00:37:37;;;;;;;;;;;;;;;;;;2079024;28;7025;-64
2021/01/13 00:38:39;;;;;;;;;;;;;;;;;;2095475;28;7100;-67
2021/01/13 00:39:41;;;;;;;;;;;;;;;;;;2095094;28;7028;-71
2021/01/13 00:40:43;;;;;;;;;;;;;;;;;;2078648;28;7092;-68
2021/01/13 00:41:45;;;;;;;;;;;;;;;;;;2078674;28;7042;-67
2021/01/13 00:42:48;;;;;;;;;;;;;;;;;;2074919;28;8079;-67
2021/01/13 00:43:52;;;;;;;;;;;;;;;;;;2070711;28;7049;-68
2021/01/13 00:44:54;;;;;;;;;;;;;;;;;;2070659;28;7073;-67
2021/01/13 00:45:56;;;;;;;;;;;;;;;;;;2076022;28;7017;-64
2021/01/13 00:46:58;;;;;;;;;;;;;;;;;;2078717;28;8036;-68
2021/01/13 00:48:00;;;;;;;;;;;;;;;;;;2079089;28;7497;-66
2021/01/13 00:49:03;;;;;;;;;;;;;;;;;;2078703;28;7009;-68
2021/01/13 00:50:05;;;;;;;;;;;;;;;;;;2079063;28;7088;-69
2021/01/13 00:51:07;;;;;;;;;;;;;;;;;;2078966;28;7009;-67
2021/01/13 00:52:09;;;;;;;;;;;;;;;;;;2079348;28;7008;-67
2021/01/13 00:53:11;;;;;;;;;;;;;;;;;;2079166;28;7125;-65
2021/01/13 00:54:13;;;;;;;;;;;;;;;;;;2079086;28;7013;-68
2021/01/13 00:55:15;;;;;;;;;;;;;;;;;;2078755;28;7006;-65
2021/01/13 00:56:24;;;;;;;;;;;;;;;;;;2078682;28;7033;-67
2021/01/13 00:57:26;;;;;;;;;;;;;;;;;;2078890;28;7092;-68
2021/01/13 00:58:28;;;;;;;;;;;;;;;;;;2078692;28;7092;-67
2021/01/13 00:59:30;;;;;;;;;;;;;;;;;;2078547;28;7100;-66
2021/01/13 01:00:32;;;;;;;;;;;;;;;;;;2078618;28;8019;-68
2021/01/13 01:01:40;;;;;;;;;;;;;;;;;;2079378;28;7050;-64
2021/01/13 01:02:42;;;;;;;;;;;;;;;;;;2070293;28;7037;-67
2021/01/13 01:03:45;;;;;;;;;;;;;;;;;;2070703;28;7097;-67
2021/01/13 01:04:47;;;;;;;;;;;;;;;;;;2070387;28;7512;-66
2021/01/13 01:05:49;;;;;;;;;;;;;;;;;;2070693;28;7013;-67
2021/01/13 01:06:51;;;;;;;;;;;;;;;;;;2070739;28;7009;-63
2021/01/13 01:07:53;;;;;;;;;;;;;;;;;;2070321;28;7117;-67
2021/01/13 01:08:56;;;;;;;;;;;;;;;;;;2070800;28;7491;-64
2021/01/13 01:10:01;;;;;;;;;;;;;;;;;;2068954;28;7085;-66
2021/01/13 01:11:04;;;;;;;;;;;;;;;;;;2070907;28;7716;-68
2021/01/13 01:12:07;;;;;;;;;;;;;;;;;;2070787;28;7092;-64
2021/01/13 01:13:09;;;;;;;;;;;;;;;;;;2070838;28;7009;-68
2021/01/13 01:14:12;;;;;;;;;;;;;;;;;;2068953;28;7005;-68
2021/01/13 01:15:14;;;;;;;;;;;;;;;;;;2070598;28;7088;-68
2021/01/13 01:16:16;;;;;;;;;;;;;;;;;;2070416;28;7092;-68
2021/01/13 01:17:20;;;;;;;;;;;;;;;;;;2069079;28;7021;-67
2021/01/13 01:18:22;;;;;;;;;;;;;;;;;;2070341;28;7109;-66
2021/01/13 01:19:24;;;;;;;;;;;;;;;;;;2070314;28;7088;-69
2021/01/13 01:20:26;;;;;;;;;;;;;;;;;;2070469;28;7109;-65
2021/01/13 01:21:29;;;;;;;;;;;;;;;;;;2075043;28;8051;-66
2021/01/13 01:22:31;;;;;;;;;;;;;;;;;;2078373;28;7096;-68
2021/01/13 01:23:33;;;;;;;;;;;;;;;;;;2078437;28;7010;-68
2021/01/13 01:24:35;;;;;;;;;;;;;;;;;;2078382;28;7092;-68
2021/01/13 01:25:37;;;;;;;;;;;;;;;;;;2078842;28;7088;-68
2021/01/13 01:26:45;;;;;;;;;;;;;;;;;;2086710;28;7049;-64
2021/01/13 01:27:51;;;;;;;;;;;;;;;;;;2085536;28;7129;-66
2021/01/13 01:28:53;;;;;;;;;;;;;;;;;;2071196;28;7081;-69
2021/01/13 01:29:55;;;;;;;;;;;;;;;;;;2079138;28;7073;-68
2021/01/13 01:30:57;;;;;;;;;;;;;;;;;;2079063;28;7009;-66
2021/01/13 01:31:59;;;;;;;;;;;;;;;;;;2079207;28;8018;-68
2021/01/13 01:33:02;;;;;;;;;;;;;;;;;;2078269;28;7194;-64
2021/01/13 01:34:04;;;;;;;;;;;;;;;;;;2078716;28;7016;-68
2021/01/13 01:35:06;;;;;;;;;;;;;;;;;;2078502;28;7005;-65
2021/01/13 01:36:08;;;;;;;;;;;;;;;;;;2078293;28;7109;-65
2021/01/13 01:37:10;;;;;;;;;;;;;;;;;;2078304;28;7009;-67
2021/01/13 01:38:12;;;;;;;;;;;;;;;;;;2085733;28;7001;-67
2021/01/13 01:39:14;;;;;;;;;;;;;;;;;;2085541;28;7113;-65
2021/01/13 01:40:17;;;;;;;;;;;;;;;;;;2077872;28;8097;-66
2021/01/13 01:41:20;;;;;;;;;;;;;;;;;;2078710;28;7113;-66
2021/01/13 01:42:22;;;;;;;;;;;;;;;;;;2078487;28;7005;-67
2021/01/13 01:43:25;;;;;;;;;;;;;;;;;;2078748;28;7093;-68
2021/01/13 01:44:26;;;;;;;;;;;;;;;;;;2078471;28;7138;-67
2021/01/13 01:45:30;;;;;;;;;;;;;;;;;;2078695;28;7105;-65
2021/01/13 01:46:32;;;;;;;;;;;;;;;;;;2078689;28;7046;-67
2021/01/13 01:47:54;;;;;;;;;;;;;;;;;;2094279;28;7049;-65
2021/01/13 01:48:59;;;;;;;;;;;;;;;;;;2081654;28;7026;-66
2021/01/13 01:50:01;;;;;;;;;;;;;;;;;;2070285;28;7093;-69
2021/01/13 01:51:06;;;;;;;;;;;;;;;;;;2070365;28;7010;-68
2021/01/13 01:52:16;;;;;;;;;;;;;;;;;;2070312;28;7112;-68
2021/01/13 01:53:18;;;;;;;;;;;;;;;;;;2070839;28;8069;-69
2021/01/13 01:54:24;;;;;;;;;;;;;;;;;;2070765;28;7104;-68
2021/01/13 01:55:31;;;;;;;;;;;;;;;;;;2070496;28;7145;-67
2021/01/13 01:56:37;;;;;;;;;;;;;;;;;;2070067;28;7105;-67
2021/01/13 01:57:40;;;;;;;;;;;;;;;;;;2070741;28;7159;-66
2021/01/13 01:58:46;;;;;;;;;;;;;;;;;;2070882;28;7005;-66
2021/01/13 01:59:48;;;;;;;;;;;;;;;;;;2070427;28;7109;-67
2021/01/13 02:00:53;;;;;;;;;;;;;;;;;;2070052;28;7014;-68
2021/01/13 02:02:01;;;;;;;;;;;;;;;;;;2070152;28;8106;-65
2021/01/13 02:03:13;;;;;;;;;;;;;;;;;;2070743;28;8115;-68
2021/01/13 02:04:16;;;;;;;;;;;;;;;;;;2070347;28;8233;-67
2021/01/13 02:05:19;;;;;;;;;;;;;;;;;;2070556;28;7073;-64
2021/01/13 02:06:30;;;;;;;;;;;;;;;;;;2070618;28;7461;-65
2021/01/13 02:07:33;;;;;;;;;;;;;;;;;;2070265;28;7049;-68
2021/01/13 02:08:39;;;;;;;;;;;;;;;;;;2069974;28;7050;-65
2021/01/13 02:09:41;;;;;;;;;;;;;;;;;;2070838;28;8067;-67
2021/01/13 02:10:44;;;;;;;;;;;;;;;;;;2070487;28;8148;-68
2021/01/13 02:11:51;;;;;;;;;;;;;;;;;;2070732;28;7100;-65
2021/01/13 02:13:05;;;;;;;;;;;;;;;;;;2070178;28;8001;-64
2021/01/13 02:14:07;;;;;;;;;;;;;;;;;;2070290;28;7017;-67
2021/01/13 02:15:09;;;;;;;;;;;;;;;;;;2070538;28;7367;-67
2021/01/13 02:16:13;;;;;;;;;;;;;;;;;;2070482;28;7010;-66
2021/01/13 02:17:20;;;;;;;;;;;;;;;;;;2070118;28;7096;-64
2021/01/13 02:18:26;;;;;;;;;;;;;;;;;;2069242;28;7730;-68
2021/01/13 02:19:40;;;;;;;;;;;;;;;;;;2070142;28;7112;-68
2021/01/13 02:20:45;;;;;;;;;;;;;;;;;;2078523;28;7013;-67
2021/01/13 02:21:49;;;;;;;;;;;;;;;;;;2071080;28;7109;-66
2021/01/13 02:22:56;;;;;;;;;;;;;;;;;;2070090;28;7983;-65
2021/01/13 02:24:20;;;;;;;;;;;;;;;;;;2070939;28;7116;-66
2021/01/13 02:25:37;;;;;;;;;;;;;;;;;;2069423;28;7025;-71
2021/01/13 02:26:58;;;;;;;;;;;;;;;;;;2070344;28;7088;-65
2021/01/13 02:28:07;;;;;;;;;;;;;;;;;;2071162;28;7096;-70
2021/01/13 02:29:09;;;;;;;;;;;;;;;;;;2070666;28;7116;-65
2021/01/13 02:30:14;;;;;;;;;;;;;;;;;;2070711;28;7010;-66
2021/01/13 02:31:28;;;;;;;;;;;;;;;;;;2068673;28;7014;-66
2021/01/13 02:32:38;;;;;;;;;;;;;;;;;;2071536;28;7526;-67
2021/01/13 02:34:03;;;;;;;;;;;;;;;;;;2070685;28;7092;-66
2021/01/13 02:35:14;;;;;;;;;;;;;;;;;;2077293;28;7088;-67
2021/01/13 02:36:18;;;;;;;;;;;;;;;;;;2070365;28;7005;-65
2021/01/13 02:37:40;;;;;;;;;;;;;;;;;;2070543;28;8035;-65
2021/01/13 02:38:42;;;;;;;;;;;;;;;;;;2070024;28;7108;-65
2021/01/13 02:39:45;;;;;;;;;;;;;;;;;;2069844;28;8088;-66
2021/01/13 02:40:48;;;;;;;;;;;;;;;;;;2070135;28;7013;-68
2021/01/13 02:41:53;;;;;;;;;;;;;;;;;;2070012;28;7009;-68
2021/01/13 02:43:08;;;;;;;;;;;;;;;;;;2072731;28;7178;-68
2021/01/13 02:44:11;;;;;;;;;;;;;;;;;;2069650;28;7337;-68
2021/01/13 02:45:17;;;;;;;;;;;;;;;;;;2069031;28;7120;-65
2021/01/13 02:46:39;;;;;;;;;;;;;;;;;;2070054;28;7088;-65
2021/01/13 02:48:01;;;;;;;;;;;;;;;;;;2070310;28;8033;-65
2021/01/13 02:49:08;;;;;;;;;;;;;;;;;;2071683;28;7009;-65
2021/01/13 02:50:21;;;;;;;;;;;;;;;;;;2069844;28;7305;-67
2021/01/13 02:51:30;;;;;;;;;;;;;;;;;;2078314;28;7154;-65
2021/01/13 02:52:47;;;;;;;;;;;;;;;;;;2075784;28;8162;-66
2021/01/13 02:53:55;;;;;;;;;;;;;;;;;;2071455;28;7112;-67
2021/01/13 02:55:03;;;;;;;;;;;;;;;;;;2071922;28;7092;-67
2021/01/13 02:56:06;;;;;;;;;;;;;;;;;;2071915;28;8168;-68
2021/01/13 02:57:14;;;;;;;;;;;;;;;;;;2072120;28;7050;-68
2021/01/13 02:58:27;;;;;;;;;;;;;;;;;;2071269;28;7009;-66
2021/01/13 02:59:29;;;;;;;;;;;;;;;;;;2071737;28;7030;-63
2021/01/13 03:00:31;;;;;;;;;;;;;;;;;;2072455;28;7013;-66
2021/01/13 03:01:36;;;;;;;;;;;;;;;;;;2079571;28;7129;-65
2021/01/13 03:02:39;;;;;;;;;;;;;;;;;;2079074;28;7088;-65
2021/01/13 03:03:43;;;;;;;;;;;;;;;;;;2071260;28;7092;-64
2021/01/13 03:04:45;;;;;;;;;;;;;;;;;;2071433;28;7017;-65
2021/01/13 03:05:47;;;;;;;;;;;;;;;;;;2071663;28;7092;-66
2021/01/13 03:06:50;;;;;;;;;;;;;;;;;;2071572;28;7042;-66
2021/01/13 03:07:55;;;;;;;;;;;;;;;;;;2071927;28;7009;-68
2021/01/13 03:08:57;;;;;;;;;;;;;;;;;;2071650;28;7046;-69
2021/01/13 03:10:07;;;;;;;;;;;;;;;;;;2072078;28;7046;-63
2021/01/13 03:11:11;;;;;;;;;;;;;;;;;;2072068;28;7029;-65
2021/01/13 03:12:18;;;;;;;;;;;;;;;;;;2071531;28;7005;-64
2021/01/13 03:13:32;;;;;;;;;;;;;;;;;;2071323;28;7324;-68
2021/01/13 03:14:39;;;;;;;;;;;;;;;;;;2071686;28;7045;-62
2021/01/13 03:15:41;;;;;;;;;;;;;;;;;;2070599;28;7088;-68
2021/01/13 03:16:45;;;;;;;;;;;;;;;;;;2072176;28;8139;-65
2021/01/13 03:18:05;;;;;;;;;;;;;;;;;;2071487;28;7134;-67
2021/01/13 03:19:23;;;;;;;;;;;;;;;;;;2071578;28;7113;-65
2021/01/13 03:20:37;;;;;;;;;;;;;;;;;;2071763;28;7105;-69
2021/01/13 03:21:46;;;;;;;;;;;;;;;;;;2077969;28;7092;-63
2021/01/13 03:22:55;;;;;;;;;;;;;;;;;;2071346;28;7113;-66
2021/01/13 03:23:57;;;;;;;;;;;;;;;;;;2071709;28;7035;-69
2021/01/13 03:25:06;;;;;;;;;;;;;;;;;;2071835;28;7109;-65
2021/01/13 03:26:08;;;;;;;;;;;;;;;;;;2072370;28;7045;-65
2021/01/13 03:27:14;;;;;;;;;;;;;;;;;;2071277;28;7009;-65
2021/01/13 03:28:18;;;;;;;;;;;;;;;;;;2071256;28;7010;-66
2021/01/13 03:29:22;;;;;;;;;;;;;;;;;;2071481;28;7092;-63
2021/01/13 03:30:25;;;;;;;;;;;;;;;;;;2071220;28;7139;-70
2021/01/13 03:31:29;;;;;;;;;;;;;;;;;;2072757;28;8103;-63
2021/01/13 03:32:52;;;;;;;;;;;;;;;;;;2079693;28;7288;-68
2021/01/13 03:34:12;;;;;;;;;;;;;;;;;;2079613;28;7017;-67
2021/01/13 03:35:16;;;;;;;;;;;;;;;;;;2079699;28;7005;-68
2021/01/13 03:36:32;;;;;;;;;;;;;;;;;;2079553;28;7013;-70
2021/01/13 03:37:54;;;;;;;;;;;;;;;;;;2095401;28;7005;-68
2021/01/13 03:39:06;;;;;;;;;;;;;;;;;;2089425;28;7288;-67
2021/01/13 03:40:15;;;;;;;;;;;;;;;;;;2079420;28;7005;-67
2021/01/13 03:41:21;;;;;;;;;;;;;;;;;;2070855;28;7018;-67
2021/01/13 03:42:23;;;;;;;;;;;;;;;;;;2071474;28;7132;-67
2021/01/13 03:43:33;;;;;;;;;;;;;;;;;;2071195;28;7081;-67
2021/01/13 03:44:37;;;;;;;;;;;;;;;;;;2071588;28;8023;-68
2021/01/13 03:45:39;;;;;;;;;;;;;;;;;;2071622;28;7920;-69
2021/01/13 03:46:41;;;;;;;;;;;;;;;;;;2071506;28;7109;-67
2021/01/13 03:47:49;;;;;;;;;;;;;;;;;;2070359;28;7086;-68
2021/01/13 03:48:58;;;;;;;;;;;;;;;;;;2071015;28;7050;-70
2021/01/13 03:50:15;;;;;;;;;;;;;;;;;;2071795;28;7014;-67
2021/01/13 03:51:36;;;;;;;;;;;;;;;;;;2071174;28;7013;-67
2021/01/13 03:52:47;;;;;;;;;;;;;;;;;;2071746;28;7103;-67
2021/01/13 03:53:51;;;;;;;;;;;;;;;;;;2070182;28;7021;-67
2021/01/13 03:54:54;;;;;;;;;;;;;;;;;;2071303;28;7014;-70
2021/01/13 03:55:57;;;;;;;;;;;;;;;;;;2071130;28;7092;-68
2021/01/13 03:57:01;;;;;;;;;;;;;;;;;;2071141;28;7042;-68
2021/01/13 03:58:09;;;;;;;;;;;;;;;;;;2071148;28;9021;-66
2021/01/13 03:59:15;;;;;;;;;;;;;;;;;;2070937;28;7021;-66
2021/01/13 04:00:21;;;;;;;;;;;;;;;;;;2071783;28;7092;-68
2021/01/13 04:01:26;;;;;;;;;;;;;;;;;;2071216;28;7005;-68
2021/01/13 04:02:29;;;;;;;;;;;;;;;;;;2071166;28;7041;-67
2021/01/13 04:03:31;;;;;;;;;;;;;;;;;;2069987;28;7534;-64
2021/01/13 04:04:35;;;;;;;;;;;;;;;;;;2071382;28;7092;-66
2021/01/13 04:05:41;;;;;;;;;;;;;;;;;;2069857;28;7128;-66
2021/01/13 04:06:52;;;;;;;;;;;;;;;;;;2070980;28;7055;-65
2021/01/13 04:07:55;;;;;;;;;;;;;;;;;;2071476;28;7018;-67
2021/01/13 04:09:00;;;;;;;;;;;;;;;;;;2071598;28;7013;-64
2021/01/13 04:10:06;;;;;;;;;;;;;;;;;;2071055;28;7009;-64
2021/01/13 04:11:12;;;;;;;;;;;;;;;;;;2071047;28;7336;-66
2021/01/13 04:12:15;;;;;;;;;;;;;;;;;;2071354;28;7113;-68
2021/01/13 04:13:41;;;;;;;;;;;;;;;;;;2069787;28;7010;-66
2021/01/13 04:14:48;;;;;;;;;;;;;;;;;;2073128;28;7013;-68
2021/01/13 04:15:51;;;;;;;;;;;;;;;;;;2071094;28;7093;-68
2021/01/13 04:16:55;;;;;;;;;;;;;;;;;;2071203;28;7013;-65
2021/01/13 04:17:59;;;;;;;;;;;;;;;;;;2074766;28;7021;-69
2021/01/13 04:19:03;;;;;;;;;;;;;;;;;;2079056;28;7005;-66
2021/01/13 04:20:06;;;;;;;;;;;;;;;;;;2079259;28;7105;-68
2021/01/13 04:21:11;;;;;;;;;;;;;;;;;;2077113;28;7013;-67
2021/01/13 04:22:13;;;;;;;;;;;;;;;;;;2071190;28;7009;-65
2021/01/13 04:23:15;;;;;;;;;;;;;;;;;;2071481;28;7005;-67
2021/01/13 04:24:17;;;;;;;;;;;;;;;;;;2070653;28;7041;-65
2021/01/13 04:25:20;;;;;;;;;;;;;;;;;;2070757;28;7084;-66
2021/01/13 04:26:22;;;;;;;;;;;;;;;;;;2071438;28;7072;-67
2021/01/13 04:27:24;;;;;;;;;;;;;;;;;;2079428;28;7030;-65
2021/01/13 04:28:27;;;;;;;;;;;;;;;;;;2078852;28;7013;-67
2021/01/13 04:29:29;;;;;;;;;;;;;;;;;;2078854;28;8095;-65
2021/01/13 04:30:31;;;;;;;;;;;;;;;;;;2078653;28;7009;-68
2021/01/13 04:31:33;;;;;;;;;;;;;;;;;;2078883;28;7458;-68
2021/01/13 04:32:35;;;;;;;;;;;;;;;;;;2078769;28;7005;-68
2021/01/13 04:33:37;;;;;;;;;;;;;;;;;;2078192;28;7041;-64
2021/01/13 04:34:42;;;;;;;;;;;;;;;;;;2071019;28;7017;-65
2021/01/13 04:35:44;;;;;;;;;;;;;;;;;;2074637;28;7006;-65
2021/01/13 04:36:50;;;;;;;;;;;;;;;;;;2078749;28;7100;-67
2021/01/13 04:37:53;;;;;;;;;;;;;;;;;;2079547;28;7017;-67
2021/01/13 04:39:00;;;;;;;;;;;;;;;;;;2069950;28;7092;-68
2021/01/13 04:40:22;;;;;;;;;;;;;;;;;;2070964;28;7088;-67
2021/01/13 04:41:28;;;;;;;;;;;;;;;;;;2070786;28;8055;-65
2021/01/13 04:42:42;;;;;;;;;;;;;;;;;;2070847;28;7092;-67
2021/01/13 04:43:51;;;;;;;;;;;;;;;;;;2070535;28;7092;-68
2021/01/13 04:44:56;;;;;;;;;;;;;;;;;;2070853;28;7151;-68
2021/01/13 04:46:07;;;;;;;;;;;;;;;;;;2071034;28;7109;-65
2021/01/13 04:47:10;;;;;;;;;;;;;;;;;;2070968;28;7367;-66
2021/01/13 04:48:17;;;;;;;;;;;;;;;;;;2070956;28;7195;-67
2021/01/13 04:49:19;;;;;;;;;;;;;;;;;;2070720;28;8019;-67
2021/01/13 04:50:21;;;;;;;;;;;;;;;;;;2070927;28;7092;-68
2021/01/13 04:51:24;;;;;;;;;;;;;;;;;;2070764;28;7441;-66
2021/01/13 04:52:30;;;;;;;;;;;;;;;;;;2070531;28;7009;-66
2021/01/13 04:53:33;;;;;;;;;;;;;;;;;;2069498;28;7101;-65
2021/01/13 04:54:39;;;;;;;;;;;;;;;;;;2071447;28;7088;-67
2021/01/13 04:55:51;;;;;;;;;;;;;;;;;;2070691;28;7042;-65
2021/01/13 04:56:55;;;;;;;;;;;;;;;;;;2071363;28;7092;-68
2021/01/13 04:58:16;;;;;;;;;;;;;;;;;;2070473;28;7033;-67
2021/01/13 04:59:49;;;;;;;;;;;;;;;;;;2070912;28;7172;-69
2021/01/13 05:01:06;;;;;;;;;;;;;;;;;;2070833;28;7129;-68
2021/01/13 05:02:10;;;;;;;;;;;;;;;;;;2070937;28;7010;-66
2021/01/13 05:03:18;;;;;;;;;;;;;;;;;;2070836;28;7021;-67
2021/01/13 05:04:43;;;;;;;;;;;;;;;;;;2070660;28;7042;-67
2021/01/13 05:05:56;;;;;;;;;;;;;;;;;;2070552;28;7010;-68
2021/01/13 05:07:16;;;;;;;;;;;;;;;;;;2070682;28;8039;-66
2021/01/13 05:08:18;;;;;;;;;;;;;;;;;;2075762;28;7045;-70
2021/01/13 05:09:21;;;;;;;;;;;;;;;;;;2078691;28;7038;-64
2021/01/13 05:10:23;;;;;;;;;;;;;;;;;;2078420;28;7006;-67
2021/01/13 05:11:28;;;;;;;;;;;;;;;;;;2078716;28;7009;-65
2021/01/13 05:12:39;;;;;;;;;;;;;;;;;;2073240;28;7013;-69
2021/01/13 05:13:45;;;;;;;;;;;;;;;;;;2070654;28;8114;-65
2021/01/13 05:14:54;;;;;;;;;;;;;;;;;;2071187;28;7038;-66
2021/01/13 05:15:56;;;;;;;;;;;;;;;;;;2070345;28;7017;-66
2021/01/13 05:17:03;;;;;;;;;;;;;;;;;;2070522;28;8048;-69
2021/01/13 05:18:07;;;;;;;;;;;;;;;;;;2069392;28;7013;-66
2021/01/13 05:19:20;;;;;;;;;;;;;;;;;;2071108;28;7006;-68
2021/01/13 05:20:42;;;;;;;;;;;;;;;;;;2070873;28;7116;-65
2021/01/13 05:21:49;;;;;;;;;;;;;;;;;;2077909;28;7025;-67
2021/01/13 05:22:52;;;;;;;;;;;;;;;;;;2078517;28;7013;-69
2021/01/13 05:23:56;;;;;;;;;;;;;;;;;;2078756;28;7136;-66
2021/01/13 05:25:00;;;;;;;;;;;;;;;;;;2078418;28;7331;-69
2021/01/13 05:26:07;;;;;;;;;;;;;;;;;;2078558;28;7010;-66
2021/01/13 05:27:28;;;;;;;;;;;;;;;;;;2078267;28;7037;-65
2021/01/13 05:28:46;;;;;;;;;;;;;;;;;;2078212;28;7013;-67
2021/01/13 05:29:49;;;;;;;;;;;;;;;;;;2079094;28;7109;-69
2021/01/13 05:30:56;;;;;;;;;;;;;;;;;;2070031;28;7033;-67
2021/01/13 05:32:00;;;;;;;;;;;;;;;;;;2070475;28;7475;-68
2021/01/13 05:33:07;;;;;;;;;;;;;;;;;;2070191;28;7017;-67
2021/01/13 05:34:09;;;;;;;;;;;;;;;;;;2070978;28;7172;-65
2021/01/13 05:35:12;;;;;;;;;;;;;;;;;;2070487;28;7053;-66
2021/01/13 05:36:17;;;;;;;;;;;;;;;;;;2070390;28;7096;-65
2021/01/13 05:37:39;;;;;;;;;;;;;;;;;;2070731;28;8055;-68
2021/01/13 05:38:59;;;;;;;;;;;;;;;;;;2070916;28;7017;-66
2021/01/13 05:40:02;;;;;;;;;;;;;;;;;;2070670;28;7158;-68
2021/01/13 05:41:13;;;;;;;;;;;;;;;;;;2070872;28;8043;-68
2021/01/13 05:42:17;;;;;;;;;;;;;;;;;;2070993;28;7116;-66
2021/01/13 05:43:21;;;;;;;;;;;;;;;;;;2070675;28;7148;-65
2021/01/13 05:44:26;;;;;;;;;;;;;;;;;;2070520;28;7100;-66
2021/01/13 05:45:29;;;;;;;;;;;;;;;;;;2070577;28;7092;-67
2021/01/13 05:46:48;;;;;;;;;;;;;;;;;;2070614;28;7097;-67
2021/01/13 05:47:55;;;;;;;;;;;;;;;;;;2070367;28;7113;-68
2021/01/13 05:48:59;;;;;;;;;;;;;;;;;;2071256;28;7013;-69
2021/01/13 05:50:01;;;;;;;;;;;;;;;;;;2070555;28;7109;-64
2021/01/13 05:51:03;;;;;;;;;;;;;;;;;;2070919;28;7109;-69
2021/01/13 05:52:08;;;;;;;;;;;;;;;;;;2070557;28;8892;-65
2021/01/13 05:53:11;;;;;;;;;;;;;;;;;;2071113;28;7005;-67
2021/01/13 05:54:15;;;;;;;;;;;;;;;;;;2070722;28;7009;-67
2021/01/13 05:55:18;;;;;;;;;;;;;;;;;;2070640;28;7049;-64
2021/01/13 05:56:21;;;;;;;;;;;;;;;;;;2070778;28;7035;-67
2021/01/13 05:57:24;;;;;;;;;;;;;;;;;;2070424;28;7529;-66
2021/01/13 05:58:26;;;;;;;;;;;;;;;;;;2070731;28;7241;-67
2021/01/13 05:59:30;;;;;;;;;;;;;;;;;;2070632;28;7035;-66
2021/01/13 06:00:35;;;;;;;;;;;;;;;;;;2071128;28;8072;-66
2021/01/13 06:01:48;;;;;;;;;;;;;;;;;;2070559;28;7017;-65
2021/01/13 06:02:55;;;;;;;;;;;;;;;;;;2070875;28;7042;-66
2021/01/13 06:03:58;;;;;;;;;;;;;;;;;;2070506;28;8039;-64
2021/01/13 06:05:03;;;;;;;;;;;;;;;;;;2070988;28;7009;-66
2021/01/13 06:06:05;;;;;;;;;;;;;;;;;;2070320;28;8100;-65
2021/01/13 06:07:33;;;;;;;;;;;;;;;;;;2070817;28;7117;-66
2021/01/13 06:08:44;;;;;;;;;;;;;;;;;;2070817;28;7045;-65
2021/01/13 06:09:53;;;;;;;;;;;;;;;;;;2070447;28;7010;-69
2021/01/13 06:10:55;;;;;;;;;;;;;;;;;;2070473;28;7045;-68
2021/01/13 06:12:00;;;;;;;;;;;;;;;;;;2070370;28;7010;-66
2021/01/13 06:13:04;;;;;;;;;;;;;;;;;;2069970;28;7017;-67
2021/01/13 06:14:07;;;;;;;;;;;;;;;;;;2070683;28;7046;-67
2021/01/13 06:15:12;;;;;;;;;;;;;;;;;;2070429;28;7033;-66
2021/01/13 06:16:16;;;;;;;;;;;;;;;;;;2070398;28;7009;-66
2021/01/13 06:17:22;;;;;;;;;;;;;;;;;;2070248;28;7013;-67
2021/01/13 06:18:25;;;;;;;;;;;;;;;;;;2070506;28;7050;-68
2021/01/13 06:19:30;;;;;;;;;;;;;;;;;;2070638;28;7214;-65
2021/01/13 06:20:32;;;;;;;;;;;;;;;;;;2068914;28;7054;-68
2021/01/13 06:21:34;;;;;;;;;;;;;;;;;;2075753;28;7097;-66
2021/01/13 06:22:37;;;;;;;;;;;;;;;;;;2079098;28;7092;-65
2021/01/13 06:24:01;;;;;;;;;;;;;;;;;;2079047;28;8054;-66
2021/01/13 06:25:04;;;;;;;;;;;;;;;;;;2078983;28;7046;-67
2021/01/13 06:26:07;;;;;;;;;;;;;;;;;;2078952;28;7034;-69
2021/01/13 06:27:22;;;;;;;;;;;;;;;;;;2079659;28;7013;-66
2021/01/13 06:28:42;;;;;;;;;;;;;;;;;;2080183;28;7120;-66
2021/01/13 06:29:49;;;;;;;;;;;;;;;;;;2080097;28;7045;-68
2021/01/13 06:31:02;;;;;;;;;;;;;;;;;;2080445;28;7108;-67
2021/01/13 06:32:12;;;;;;;;;;;;;;;;;;2079902;28;7013;-65
2021/01/13 06:33:24;;;;;;;;;;;;;;;;;;2080066;28;7040;-69
2021/01/13 06:34:28;;;;;;;;;;;;;;;;;;2080601;28;7010;-69
2021/01/13 06:35:39;;;;;;;;;;;;;;;;;;2080310;28;7113;-65
2021/01/13 06:36:50;;;;;;;;;;;;;;;;;;2080515;28;8047;-68
2021/01/13 06:37:55;;;;;;;;;;;;;;;;;;2079788;28;7153;-67
2021/01/13 06:39:02;;;;;;;;;;;;;;;;;;2080193;28;7009;-68
2021/01/13 06:40:12;;;;;;;;;;;;;;;;;;2080292;28;7100;-66
2021/01/13 06:41:14;;;;;;;;;;;;;;;;;;2076381;28;7065;-64
2021/01/13 06:42:27;;;;;;;;;;;;;;;;;;2081774;28;7104;-65
2021/01/13 06:43:29;;;;;;;;;;;;;;;;;;2085796;28;7109;-65
2021/01/13 06:44:45;;;;;;;;;;;;;;;;;;2079932;28;8121;-68
2021/01/13 06:45:47;;;;;;;;;;;;;;;;;;2079472;28;7057;-68
2021/01/13 06:46:50;;;;;;;;;;;;;;;;;;2072193;28;7149;-68
2021/01/13 06:47:54;;;;;;;;;;;;;;;;;;2071918;28;7323;-67
2021/01/13 06:49:10;;;;;;;;;;;;;;;;;;2072080;28;8047;-68
2021/01/13 06:50:12;;;;;;;;;;;;;;;;;;2071879;28;7009;-68
2021/01/13 06:51:18;;;;;;;;;;;;;;;;;;2074080;28;7316;-66
2021/01/13 06:52:28;;;;;;;;;;;;;;;;;;2071349;28;8067;-66
2021/01/13 06:53:34;;;;;;;;;;;;;;;;;;2072011;28;8027;-67
2021/01/13 06:54:48;;;;;;;;;;;;;;;;;;2070913;28;8036;-65
2021/01/13 06:55:52;;;;;;;;;;;;;;;;;;2071255;28;7377;-65
2021/01/13 06:56:56;;;;;;;;;;;;;;;;;;2071011;28;7021;-66
2021/01/13 06:58:13;;;;;;;;;;;;;;;;;;2072502;28;7046;-69
2021/01/13 06:59:17;;;;;;;;;;;;;;;;;;2072289;28;7088;-67
2021/01/13 07:00:20;;;;;;;;;;;;;;;;;;2079204;28;7097;-66
2021/01/13 07:01:22;;;;;;;;;;;;;;;;;;2078841;28;7009;-66
2021/01/13 07:02:35;;;;;;;;;;;;;;;;;;2071934;28;8010;-68
2021/01/13 07:03:38;;;;;;;;;;;;;;;;;;2071944;28;7013;-66
2021/01/13 07:04:45;;;;;;;;;;;;;;;;;;2072182;28;7367;-65
2021/01/13 07:05:47;;;;;;;;;;;;;;;;;;2072578;28;7013;-68
2021/01/13 07:07:07;;;;;;;;;;;;;;;;;;2071597;28;7096;-67
2021/01/13 07:08:09;;;;;;;;;;;;;;;;;;2071931;28;7305;-67
2021/01/13 07:09:11;;;;;;;;;;;;;;;;;;2071711;28;7108;-68
2021/01/13 07:10:14;;;;;;;;;;;;;;;;;;2071441;28;8124;-65
2021/01/13 07:11:16;;;;;;;;;;;;;;;;;;2071224;28;7105;-66
2021/01/13 07:12:24;;;;;;;;;;;;;;;;;;2072055;28;7005;-70
2021/01/13 07:13:26;;;;;;;;;;;;;;;;;;2071523;28;7021;-68
2021/01/13 07:14:29;;;;;;;;;;;;;;;;;;2071896;28;7021;-67
2021/01/13 07:15:32;;;;;;;;;;;;;;;;;;2071109;28;7014;-69
2021/01/13 07:16:35;;;;;;;;;;;;;;;;;;2071738;28;7010;-67
2021/01/13 07:17:39;;;;;;;;;;;;;;;;;;2071555;28;7092;-69
2021/01/13 07:18:41;;;;;;;;;;;;;;;;;;2071532;28;7006;-66
2021/01/13 07:19:45;;;;;;;;;;;;;;;;;;2071618;28;7013;-67
2021/01/13 07:20:48;;;;;;;;;;;;;;;;;;2071652;28;8340;-66
2021/01/13 07:21:51;;;;;;;;;;;;;;;;;;2079366;28;7096;-69
2021/01/13 07:22:54;;;;;;;;;;;;;;;;;;2079647;28;7088;-69
2021/01/13 07:23:56;;;;;;;;;;;;;;;;;;2080016;28;7100;-66
2021/01/13 07:24:58;;;;;;;;;;;;;;;;;;2087289;28;7046;-67
2021/01/13 07:26:00;;;;;;;;;;;;;;;;;;2086846;28;7025;-65
2021/01/13 07:27:09;;;;;;;;;;;;;;;;;;2080155;28;7017;-68
2021/01/13 07:28:12;;;;;;;;;;;;;;;;;;2071110;28;7395;-65
2021/01/13 07:29:15;;;;;;;;;;;;;;;;;;2071739;28;7120;-69
2021/01/13 07:30:18;;;;;;;;;;;;;;;;;;2072482;28;7033;-65
2021/01/13 07:31:28;;;;;;;;;;;;;;;;;;2071493;28;8111;-65
2021/01/13 07:32:36;;;;;;;;;;;;;;;;;;2071619;28;7045;-66
2021/01/13 07:33:44;;;;;;;;;;;;;;;;;;2071493;28;7018;-65
2021/01/13 07:34:52;;;;;;;;;;;;;;;;;;2071929;28;7002;-66
2021/01/13 07:35:58;;;;;;;;;;;;;;;;;;2071715;28;7100;-66
2021/01/13 07:37:02;;;;;;;;;;;;;;;;;;2071946;28;7009;-67
2021/01/13 07:38:11;;;;;;;;;;;;;;;;;;2070396;28;7006;-65